Time;durP1;ratioP1;P1;durP2;ratioP2;P2;SDS_P1;SDS_P2;PMS_P1;PMS_P2;Temp;Humidity;BMP_temperature;BMP_pressure;BME280_temperature;BME280_humidity;BME280_pressure;Samples;Min_cycle;Max_cycle;Signal;HPM_P1;HPM_P2
2023/06/07 00:00:20;;;;;;;4.57;3.80;;;14.80;99.90;;;;;;5073566;28;20485;-48
2023/06/07 00:02:47;;;;;;;5.00;3.73;;;14.80;99.90;;;;;;5073202;28;20445;-51
2023/06/07 00:05:14;;;;;;;5.83;4.00;;;14.80;99.90;;;;;;5072768;28;20444;-48
2023/06/07 00:07:41;;;;;;;6.00;3.87;;;14.80;99.90;;;;;;5070938;28;20472;-49
2023/06/07 00:10:09;;;;;;;6.90;3.40;;;14.80;99.90;;;;;;5073175;28;20529;-48
2023/06/07 00:12:37;;;;;;;5.43;4.40;;;14.70;99.90;;;;;;5072909;28;20474;-48
2023/06/07 00:15:04;;;;;;;4.80;3.73;;;14.80;99.90;;;;;;5072299;28;20477;-51
2023/06/07 00:17:33;;;;;;;4.53;3.90;;;14.80;99.90;;;;;;5072423;28;20490;-53
2023/06/07 00:20:00;;;;;;;5.07;3.50;;;14.90;99.90;;;;;;5071091;28;20533;-50
2023/06/07 00:22:29;;;;;;;4.60;4.00;;;14.90;99.90;;;;;;5072913;28;21011;-48
2023/06/07 00:24:55;;;;;;;4.40;3.60;;;14.90;99.90;;;;;;5072182;28;20495;-53
2023/06/07 00:27:22;;;;;;;6.73;3.57;;;14.90;99.90;;;;;;5072285;28;20594;-48
2023/06/07 00:29:49;;;;;;;6.70;4.07;;;14.80;99.90;;;;;;5072744;28;20444;-48
2023/06/07 00:32:16;;;;;;;4.40;3.03;;;14.80;99.90;;;;;;5072596;28;20478;-50
2023/06/07 00:34:44;;;;;;;5.37;4.17;;;14.80;99.90;;;;;;5072303;28;20476;-48
2023/06/07 00:37:11;;;;;;;6.00;3.60;;;14.80;99.90;;;;;;5071912;28;20480;-48
2023/06/07 00:39:38;;;;;;;4.87;3.73;;;14.80;99.90;;;;;;5072724;28;20436;-48
2023/06/07 00:42:06;;;;;;;4.43;3.77;;;14.90;99.90;;;;;;5072582;28;20539;-48
2023/06/07 00:44:33;;;;;;;5.70;3.90;;;14.80;99.90;;;;;;5071983;28;20484;-50
2023/06/07 00:47:00;;;;;;;3.87;3.20;;;14.80;99.90;;;;;;5072179;28;20476;-48
2023/06/07 00:49:27;;;;;;;4.93;3.23;;;14.70;99.90;;;;;;5071944;28;20881;-48
2023/06/07 00:51:56;;;;;;;7.13;5.00;;;14.50;99.90;;;;;;5072228;28;20480;-47
2023/06/07 00:54:23;;;;;;;4.13;2.97;;;14.60;99.90;;;;;;5069885;28;20876;-48
2023/06/07 00:56:50;;;;;;;4.83;4.20;;;14.50;99.90;;;;;;5072061;28;20467;-50
2023/06/07 00:59:18;;;;;;;4.60;3.43;;;14.50;99.90;;;;;;5071884;28;20548;-49
2023/06/07 01:01:47;;;;;;;4.57;3.60;;;14.50;99.90;;;;;;5072343;28;20677;-51
2023/06/07 01:04:18;;;;;;;5.33;4.23;;;14.40;99.90;;;;;;5071229;28;20564;-48
2023/06/07 01:06:44;;;;;;;4.20;3.57;;;14.40;99.90;;;;;;5070449;28;20440;-48
2023/06/07 01:09:13;;;;;;;5.70;4.00;;;14.30;99.90;;;;;;5071761;28;20465;-48
2023/06/07 01:11:43;;;;;;;4.60;3.87;;;14.30;99.90;;;;;;5071863;28;20535;-48
2023/06/07 01:14:11;;;;;;;4.27;3.33;;;14.20;99.90;;;;;;5071510;28;20524;-49
2023/06/07 01:16:39;;;;;;;8.23;5.17;;;14.20;99.90;;;;;;5071497;28;20480;-52
2023/06/07 01:19:07;;;;;;;4.20;3.50;;;14.10;99.90;;;;;;5069912;28;20500;-48
2023/06/07 01:21:37;;;;;;;5.43;4.20;;;14.20;99.90;;;;;;5071869;28;20523;-49
2023/06/07 01:24:07;;;;;;;4.90;3.80;;;14.10;99.90;;;;;;5071340;28;20500;-48
2023/06/07 01:26:35;;;;;;;5.57;3.67;;;14.20;99.90;;;;;;5071253;28;20455;-51
2023/06/07 01:29:06;;;;;;;5.20;3.93;;;14.30;99.90;;;;;;5071425;28;20472;-48
2023/06/07 01:31:36;;;;;;;4.67;3.90;;;14.30;99.90;;;;;;5071960;28;20453;-47
2023/06/07 01:34:03;;;;;;;4.00;3.30;;;14.30;99.90;;;;;;5071203;28;20468;-54
2023/06/07 01:36:31;;;;;;;4.67;3.20;;;14.30;99.90;;;;;;5071146;28;20491;-48
2023/06/07 01:39:00;;;;;;;4.83;3.70;;;14.20;99.90;;;;;;5070835;28;20545;-50
2023/06/07 01:41:30;;;;;;;5.30;3.87;;;14.10;99.90;;;;;;5071278;28;20961;-48
2023/06/07 01:43:58;;;;;;;4.50;3.87;;;14.10;99.90;;;;;;5070907;28;20574;-49
2023/06/07 01:46:26;;;;;;;6.23;4.17;;;14.00;99.90;;;;;;5071413;28;20957;-50
2023/06/07 01:48:53;;;;;;;4.93;4.03;;;14.00;99.90;;;;;;5071395;28;20836;-48
2023/06/07 01:51:20;;;;;;;4.93;4.10;;;14.00;99.90;;;;;;5071308;28;20440;-48
2023/06/07 01:53:49;;;;;;;5.80;4.30;;;14.00;99.90;;;;;;5070246;28;20469;-51
2023/06/07 01:56:25;;;;;;;6.53;3.97;;;14.00;99.90;;;;;;5070717;28;20966;-49
2023/06/07 01:59:03;;;;;;;4.83;4.03;;;14.00;99.90;;;;;;5072104;28;20472;-51
2023/06/07 02:01:36;;;;;;;3.50;3.20;;;14.00;99.90;;;;;;5071080;28;20452;-48
2023/06/07 02:04:07;;;;;;;4.60;3.90;;;14.10;99.90;;;;;;5070671;28;20476;-48
2023/06/07 02:06:40;;;;;;;5.40;4.27;;;14.10;99.90;;;;;;5069132;28;20959;-53
2023/06/07 02:09:10;;;;;;;6.37;4.10;;;14.10;99.90;;;;;;5071480;28;20476;-52
2023/06/07 02:11:39;;;;;;;4.93;3.97;;;14.10;99.90;;;;;;5070560;28;20440;-48
2023/06/07 02:14:08;;;;;;;5.33;4.23;;;14.20;99.90;;;;;;5070850;28;20516;-48
2023/06/07 02:16:36;;;;;;;5.03;4.20;;;14.20;99.90;;;;;;5071171;28;20480;-49
2023/06/07 02:19:06;;;;;;;4.70;4.00;;;14.20;99.90;;;;;;5069539;28;20514;-48
2023/06/07 02:21:34;;;;;;;5.43;3.90;;;14.10;99.90;;;;;;5070872;28;20449;-51
2023/06/07 02:24:01;;;;;;;4.20;3.80;;;14.00;99.90;;;;;;5070436;28;20559;-50
2023/06/07 02:26:28;;;;;;;8.30;3.87;;;14.10;99.90;;;;;;5070631;28;20506;-49
2023/06/07 02:28:55;;;;;;;4.83;3.90;;;14.10;99.90;;;;;;5070486;28;20547;-48
2023/06/07 02:31:23;;;;;;;5.47;3.90;;;14.00;99.90;;;;;;5069697;28;20536;-48
2023/06/07 02:33:51;;;;;;;4.90;4.40;;;14.00;99.90;;;;;;5070423;28;21003;-48
2023/06/07 02:36:21;;;;;;;4.10;3.60;;;14.00;99.90;;;;;;5070530;28;20525;-50
2023/06/07 02:38:48;;;;;;;4.70;4.30;;;14.00;99.90;;;;;;5070283;28;20548;-53
2023/06/07 02:41:16;;;;;;;5.03;3.77;;;13.80;99.90;;;;;;5070763;28;20441;-48
2023/06/07 02:43:43;;;;;;;5.40;4.50;;;13.80;99.90;;;;;;5070372;28;20447;-49
2023/06/07 02:46:11;;;;;;;5.50;4.20;;;13.90;99.90;;;;;;5070951;28;20449;-48
2023/06/07 02:48:39;;;;;;;5.30;3.80;;;13.80;99.90;;;;;;5070085;28;20555;-47
2023/06/07 02:51:07;;;;;;;4.43;4.00;;;13.80;99.90;;;;;;5074303;28;20453;-48
2023/06/07 02:53:34;;;;;;;4.93;4.30;;;13.80;99.90;;;;;;5074382;28;21065;-48
2023/06/07 02:56:01;;;;;;;7.30;4.23;;;13.80;99.90;;;;;;5072615;28;20535;-48
2023/06/07 02:58:28;;;;;;;4.77;3.77;;;13.80;99.90;;;;;;5074419;28;20460;-48
2023/06/07 03:00:56;;;;;;;5.57;3.47;;;13.70;99.90;;;;;;5074762;28;20457;-49
2023/06/07 03:03:24;;;;;;;4.50;4.00;;;13.70;99.90;;;;;;5073952;28;20467;-50
2023/06/07 03:05:52;;;;;;;4.50;3.30;;;13.80;99.90;;;;;;5074246;28;20555;-47
2023/06/07 03:08:19;;;;;;;5.27;3.70;;;13.80;99.90;;;;;;5071934;28;20495;-52
2023/06/07 03:10:46;;;;;;;7.40;4.43;;;13.80;99.90;;;;;;5074122;28;20444;-48
2023/06/07 03:13:13;;;;;;;7.43;4.00;;;13.70;99.90;;;;;;5073715;28;20503;-48
2023/06/07 03:15:40;;;;;;;7.67;4.17;;;13.60;99.90;;;;;;5074099;28;20888;-48
2023/06/07 03:18:07;;;;;;;5.53;3.90;;;13.60;99.90;;;;;;5073580;28;20472;-48
2023/06/07 03:20:34;;;;;;;5.23;4.00;;;13.50;99.90;;;;;;5071952;28;20451;-52
2023/06/07 03:23:04;;;;;;;4.10;3.70;;;13.50;99.90;;;;;;5074163;28;20452;-48
2023/06/07 03:25:31;;;;;;;5.37;4.30;;;13.50;99.90;;;;;;5073280;28;20509;-48
2023/06/07 03:27:58;;;;;;;7.00;3.83;;;13.60;99.90;;;;;;5073888;28;20529;-48
2023/06/07 03:30:25;;;;;;;5.70;5.10;;;13.60;99.90;;;;;;5072756;28;20448;-48
2023/06/07 03:32:52;;;;;;;5.00;4.33;;;13.50;99.90;;;;;;5073815;28;20891;-48
2023/06/07 03:35:19;;;;;;;5.60;3.93;;;13.50;99.90;;;;;;5073328;28;20527;-48
2023/06/07 03:37:47;;;;;;;4.10;3.27;;;13.50;99.90;;;;;;5073473;28;20543;-48
2023/06/07 03:40:15;;;;;;;4.83;4.33;;;13.50;99.90;;;;;;5073554;28;20963;-48
2023/06/07 03:42:42;;;;;;;5.33;3.40;;;13.50;99.90;;;;;;5073725;28;20440;-49
2023/06/07 03:45:10;;;;;;;5.27;3.80;;;13.50;99.90;;;;;;5072921;28;21011;-53
2023/06/07 03:47:37;;;;;;;4.70;4.00;;;13.60;99.90;;;;;;5073225;28;20518;-48
2023/06/07 03:50:05;;;;;;;5.67;4.17;;;13.50;99.90;;;;;;5073245;28;20985;-49
2023/06/07 03:52:32;;;;;;;6.20;4.00;;;13.50;99.90;;;;;;5073310;28;20931;-48
2023/06/07 03:54:59;;;;;;;4.70;4.00;;;13.50;99.90;;;;;;5071011;28;20440;-47
2023/06/07 03:57:27;;;;;;;3.63;3.10;;;13.40;99.90;;;;;;5073009;28;20935;-49
2023/06/07 03:59:54;;;;;;;6.80;4.20;;;13.50;99.90;;;;;;5073048;28;20535;-48
2023/06/07 04:02:21;;;;;;;4.90;3.93;;;13.60;99.90;;;;;;5073109;28;20951;-48
2023/06/07 04:04:49;;;;;;;6.20;4.00;;;13.60;99.90;;;;;;5072927;28;20564;-50
2023/06/07 04:07:17;;;;;;;7.90;3.87;;;13.60;99.90;;;;;;5070943;28;20889;-48
2023/06/07 04:09:44;;;;;;;5.20;4.00;;;13.50;99.90;;;;;;5073147;28;20514;-48
2023/06/07 04:12:11;;;;;;;5.60;3.90;;;13.50;99.90;;;;;;5072990;28;20453;-50
2023/06/07 04:14:39;;;;;;;5.23;4.37;;;13.50;99.90;;;;;;5072581;28;20471;-48
2023/06/07 04:17:07;;;;;;;5.07;3.70;;;13.60;99.90;;;;;;5072612;28;20477;-48
2023/06/07 04:19:33;;;;;;;5.63;4.10;;;13.60;99.90;;;;;;5071425;28;20532;-48
2023/06/07 04:22:04;;;;;;;5.90;4.53;;;13.70;99.90;;;;;;5072959;28;20494;-47
2023/06/07 04:24:31;;;;;;;5.73;4.27;;;13.70;99.90;;;;;;5072172;28;20472;-51
2023/06/07 04:27:01;;;;;;;4.90;4.00;;;13.70;99.90;;;;;;5072461;28;20451;-48
2023/06/07 04:29:28;;;;;;;6.70;5.60;;;13.80;99.90;;;;;;5072949;28;20951;-49
2023/06/07 04:31:58;;;;;;;5.87;4.70;;;13.80;99.90;;;;;;5073115;28;20535;-48
2023/06/07 04:34:25;;;;;;;4.67;3.70;;;13.80;99.90;;;;;;5072216;28;20502;-48
2023/06/07 04:36:53;;;;;;;6.80;4.40;;;13.80;99.90;;;;;;5072251;28;20543;-48
2023/06/07 04:39:20;;;;;;;4.90;3.87;;;13.80;99.90;;;;;;5072234;28;20468;-49
2023/06/07 04:41:48;;;;;;;4.43;3.90;;;13.70;99.90;;;;;;5072655;28;20528;-48
2023/06/07 04:44:28;;;;;;;4.20;3.80;;;13.80;99.90;;;;;;5072197;28;20441;-47
2023/06/07 04:46:57;;;;;;;5.40;3.77;;;13.80;99.90;;;;;;5072263;28;20816;-48
2023/06/07 04:49:25;;;;;;;5.30;4.20;;;13.90;99.90;;;;;;5072332;28;20528;-48
2023/06/07 04:51:53;;;;;;;6.30;4.47;;;14.00;99.90;;;;;;5071473;28;20974;-49
2023/06/07 04:54:20;;;;;;;5.60;4.77;;;14.00;99.90;;;;;;5069571;28;20515;-48
2023/06/07 04:56:46;;;;;;;6.63;4.70;;;14.00;99.90;;;;;;5071889;28;20480;-49
2023/06/07 04:59:14;;;;;;;6.10;4.67;;;14.00;99.90;;;;;;5072369;28;20551;-48
2023/06/07 05:01:43;;;;;;;5.50;4.00;;;13.90;99.90;;;;;;5069550;28;20467;-48
2023/06/07 05:04:11;;;;;;;6.90;4.30;;;13.90;99.90;;;;;;5069172;28;20443;-47
2023/06/07 05:06:38;;;;;;;6.17;4.37;;;14.00;99.90;;;;;;5071034;28;20562;-50
2023/06/07 05:09:06;;;;;;;7.33;5.40;;;14.00;99.90;;;;;;5072002;28;20460;-51
2023/06/07 05:11:33;;;;;;;9.03;4.40;;;14.10;99.90;;;;;;5071131;28;20447;-53
2023/06/07 05:14:00;;;;;;;8.77;5.50;;;14.10;99.90;;;;;;5068829;28;20468;-48
2023/06/07 05:16:27;;;;;;;6.80;4.93;;;14.10;99.90;;;;;;5070821;28;20494;-48
2023/06/07 05:18:56;;;;;;;6.53;4.60;;;14.20;99.90;;;;;;5071981;28;20464;-47
2023/06/07 05:21:24;;;;;;;6.37;5.67;;;14.20;99.90;;;;;;5070957;28;20963;-48
2023/06/07 05:23:51;;;;;;;7.33;5.30;;;14.20;99.90;;;;;;5068221;28;20536;-48
2023/06/07 05:26:18;;;;;;;6.30;4.83;;;14.20;99.90;;;;;;5070963;28;21054;-48
2023/06/07 05:28:46;;;;;;;5.50;4.83;;;14.30;99.90;;;;;;5070841;28;20464;-48
2023/06/07 05:31:12;;;;;;;5.30;4.00;;;14.30;99.90;;;;;;5067398;28;20494;-49
2023/06/07 05:33:40;;;;;;;5.83;4.10;;;14.40;99.90;;;;;;5070004;28;20898;-49
2023/06/07 05:36:07;;;;;;;5.90;4.90;;;14.40;99.90;;;;;;5071799;28;20448;-49
2023/06/07 05:38:36;;;;;;;6.50;5.40;;;14.40;99.90;;;;;;5071320;28;20518;-52
2023/06/07 05:41:03;;;;;;;7.13;4.93;;;14.40;99.90;;;;;;5071383;28;20543;-48
2023/06/07 05:43:30;;;;;;;5.93;4.57;;;14.40;99.90;;;;;;5069244;28;20502;-47
2023/06/07 05:45:57;;;;;;;6.40;5.30;;;14.40;99.90;;;;;;5071083;28;20850;-48
2023/06/07 05:48:24;;;;;;;5.43;4.33;;;14.40;99.90;;;;;;5070677;28;20452;-48
2023/06/07 05:50:52;;;;;;;5.70;4.50;;;14.40;99.90;;;;;;5069387;28;20433;-50
2023/06/07 05:53:19;;;;;;;5.20;4.30;;;14.50;99.90;;;;;;5070574;28;20476;-47
2023/06/07 05:55:48;;;;;;;8.37;5.40;;;14.40;99.90;;;;;;5069026;28;20444;-48
2023/06/07 05:58:15;;;;;;;6.03;4.30;;;14.40;99.90;;;;;;5069401;28;20472;-48
2023/06/07 06:00:44;;;;;;;5.83;4.77;;;14.40;99.90;;;;;;5069576;28;21017;-48
2023/06/07 06:03:11;;;;;;;5.00;4.10;;;14.40;99.90;;;;;;5070005;28;20948;-48
2023/06/07 06:05:38;;;;;;;5.90;4.73;;;14.40;99.90;;;;;;5070715;28;20538;-49
2023/06/07 06:08:05;;;;;;;4.67;4.00;;;14.60;99.90;;;;;;5070864;28;20514;-47
2023/06/07 06:10:32;;;;;;;5.57;4.10;;;14.70;99.90;;;;;;5070705;28;20451;-50
2023/06/07 06:13:00;;;;;;;6.30;4.37;;;14.90;99.90;;;;;;5069460;28;20506;-48
2023/06/07 06:15:27;;;;;;;6.10;4.53;;;14.90;99.90;;;;;;5068898;28;20950;-48
2023/06/07 06:17:54;;;;;;;5.40;4.07;;;15.00;99.90;;;;;;5069382;28;20510;-50
2023/06/07 06:20:22;;;;;;;4.93;3.60;;;15.00;99.90;;;;;;5070132;28;20538;-48
2023/06/07 06:22:49;;;;;;;7.07;4.20;;;15.00;99.90;;;;;;5070719;28;20875;-49
2023/06/07 06:25:15;;;;;;;6.40;4.17;;;15.00;99.90;;;;;;5074250;28;20508;-48
2023/06/07 06:27:43;;;;;;;5.07;4.27;;;15.10;99.90;;;;;;5074671;28;20495;-53
2023/06/07 06:30:12;;;;;;;4.60;4.10;;;15.10;99.90;;;;;;5075283;28;20514;-50
2023/06/07 06:32:40;;;;;;;5.47;4.03;;;15.20;99.90;;;;;;5074912;28;20533;-52
2023/06/07 06:35:08;;;;;;;7.23;4.87;;;15.30;99.90;;;;;;5074429;28;20445;-48
2023/06/07 06:37:35;;;;;;;18.50;11.40;;;15.40;99.90;;;;;;5074671;28;20465;-49
2023/06/07 06:40:04;;;;;;;6.07;4.57;;;15.40;99.90;;;;;;5073378;28;20884;-50
2023/06/07 06:42:31;;;;;;;6.90;5.77;;;15.50;99.90;;;;;;5071650;28;20441;-49
2023/06/07 06:44:58;;;;;;;5.80;4.63;;;15.60;99.90;;;;;;5073097;28;20479;-50
2023/06/07 06:47:26;;;;;;;4.47;3.67;;;15.60;99.90;;;;;;5072709;28;20544;-48
2023/06/07 06:49:54;;;;;;;4.83;4.07;;;15.80;99.90;;;;;;5072977;28;20546;-52
2023/06/07 06:52:21;;;;;;;5.60;4.20;;;15.80;99.90;;;;;;5073337;28;20445;-50
2023/06/07 06:54:47;;;;;;;4.83;3.90;;;15.90;99.90;;;;;;5072269;28;20755;-49
2023/06/07 06:57:14;;;;;;;6.80;4.33;;;15.90;99.90;;;;;;5074324;28;21261;-48
2023/06/07 06:59:41;;;;;;;4.70;3.70;;;15.90;99.90;;;;;;5074463;28;20453;-48
2023/06/07 07:02:08;;;;;;;5.67;4.33;;;15.90;99.90;;;;;;5074734;28;20536;-52
2023/06/07 07:04:37;;;;;;;5.10;4.07;;;16.00;99.90;;;;;;5073961;28;20442;-51
2023/06/07 07:07:04;;;;;;;6.63;4.50;;;16.00;99.90;;;;;;5073997;28;20570;-48
2023/06/07 07:09:31;;;;;;;6.27;4.70;;;16.00;99.90;;;;;;5074424;28;20447;-49
2023/06/07 07:11:58;;;;;;;6.93;5.83;;;16.10;99.90;;;;;;5072109;28;20449;-48
2023/06/07 07:14:25;;;;;;;6.27;4.80;;;16.10;99.90;;;;;;5073758;28;21007;-52
2023/06/07 07:16:52;;;;;;;6.40;4.33;;;16.10;99.90;;;;;;5074193;28;20494;-48
2023/06/07 07:19:18;;;;;;;5.67;4.10;;;16.10;99.90;;;;;;5074084;28;20466;-49
2023/06/07 07:21:47;;;;;;;5.70;4.60;;;16.20;99.90;;;;;;5074090;28;20457;-49
2023/06/07 07:24:14;;;;;;;4.83;3.53;;;16.30;99.90;;;;;;5073661;28;20525;-50
2023/06/07 07:26:40;;;;;;;4.83;3.60;;;16.30;99.90;;;;;;5073522;28;20924;-48
2023/06/07 07:29:07;;;;;;;5.70;4.50;;;16.40;99.90;;;;;;5074050;28;20467;-53
2023/06/07 07:31:34;;;;;;;4.37;3.67;;;16.30;99.90;;;;;;5073899;28;20533;-48
2023/06/07 07:34:02;;;;;;;6.90;4.80;;;16.30;99.90;;;;;;5073577;28;20470;-48
2023/06/07 07:36:29;;;;;;;4.97;4.07;;;16.40;99.90;;;;;;5072826;28;20439;-49
2023/06/07 07:38:59;;;;;;;6.27;4.57;;;16.40;99.90;;;;;;5073784;28;20647;-48
2023/06/07 07:41:26;;;;;;;4.30;3.37;;;16.50;99.90;;;;;;5073461;28;20528;-50
2023/06/07 07:43:53;;;;;;;4.67;4.20;;;16.60;99.90;;;;;;5071806;28;20572;-48
2023/06/07 07:46:20;;;;;;;4.90;3.73;;;16.70;99.90;;;;;;5073618;28;20910;-48
2023/06/07 07:48:47;;;;;;;6.33;4.23;;;16.80;99.90;;;;;;5073159;28;20981;-52
2023/06/07 07:51:13;;;;;;;6.50;4.30;;;16.90;99.90;;;;;;5073193;28;20442;-48
2023/06/07 07:53:41;;;;;;;6.50;4.87;;;16.90;99.90;;;;;;5073063;28;20446;-54
2023/06/07 07:56:10;;;;;;;5.73;4.40;;;16.90;99.90;;;;;;5071891;28;20477;-47
2023/06/07 07:58:37;;;;;;;5.70;5.00;;;16.90;99.90;;;;;;5073366;28;20463;-52
2023/06/07 08:01:04;;;;;;;6.10;5.00;;;16.90;99.90;;;;;;5073354;28;20487;-48
2023/06/07 08:03:31;;;;;;;5.67;4.50;;;17.10;99.90;;;;;;5073046;28;20702;-50
2023/06/07 08:05:59;;;;;;;5.30;4.70;;;17.20;99.90;;;;;;5073200;28;20571;-49
2023/06/07 08:08:26;;;;;;;4.97;3.87;;;17.30;99.90;;;;;;5072875;28;20470;-48
2023/06/07 08:10:53;;;;;;;8.17;4.90;;;17.40;99.90;;;;;;5071627;28;20449;-53
2023/06/07 08:13:21;;;;;;;5.40;4.03;;;17.50;99.90;;;;;;5072853;28;20506;-48
2023/06/07 08:15:48;;;;;;;5.03;4.53;;;17.40;99.90;;;;;;5073180;28;20443;-48
2023/06/07 08:18:17;;;;;;;5.30;4.47;;;17.50;99.90;;;;;;5072643;28;20467;-48
2023/06/07 08:20:44;;;;;;;8.70;4.63;;;17.50;99.90;;;;;;5072911;28;20439;-52
2023/06/07 08:23:11;;;;;;;5.77;5.17;;;17.50;99.90;;;;;;5072479;28;20530;-52
2023/06/07 08:25:38;;;;;;;7.17;4.80;;;17.70;99.90;;;;;;5072819;28;20586;-50
2023/06/07 08:28:06;;;;;;;5.30;4.33;;;17.70;99.90;;;;;;5072072;28;20549;-48
2023/06/07 08:30:34;;;;;;;4.83;4.33;;;17.80;99.90;;;;;;5071898;28;20440;-49
2023/06/07 08:33:01;;;;;;;7.50;5.10;;;17.80;99.90;;;;;;5072836;28;20870;-48
2023/06/07 08:35:28;;;;;;;4.60;3.93;;;17.80;99.90;;;;;;5072379;28;20482;-49
2023/06/07 08:37:55;;;;;;;5.63;4.60;;;17.70;99.90;;;;;;5071948;28;21070;-52
2023/06/07 08:40:25;;;;;;;5.90;4.53;;;17.80;99.90;;;;;;5071210;28;20533;-48
2023/06/07 08:42:52;;;;;;;5.17;4.67;;;17.80;99.90;;;;;;5069796;28;21031;-49
2023/06/07 08:45:20;;;;;;;6.20;5.17;;;17.90;99.90;;;;;;5071447;28;20483;-51
2023/06/07 08:47:50;;;;;;;6.37;4.70;;;18.00;99.90;;;;;;5071448;28;20493;-50
2023/06/07 08:50:18;;;;;;;6.40;4.10;;;18.00;99.90;;;;;;5072426;28;20481;-51
2023/06/07 08:52:51;;;;;;;5.83;4.87;;;18.10;99.90;;;;;;5072030;28;20535;-53
2023/06/07 08:55:18;;;;;;;7.90;5.07;;;18.10;99.90;;;;;;5070252;28;20524;-51
2023/06/07 08:57:50;;;;;;;5.80;4.60;;;18.30;99.90;;;;;;5071898;28;21050;-49
2023/06/07 09:00:21;;;;;;;5.40;3.90;;;18.40;99.90;;;;;;5071989;28;20875;-48
2023/06/07 09:02:52;;;;;;;4.83;3.50;;;18.40;99.90;;;;;;5072640;28;20459;-50
2023/06/07 09:05:19;;;;;;;5.13;4.63;;;18.50;99.90;;;;;;5071890;28;20459;-48
2023/06/07 09:07:46;;;;;;;5.23;4.73;;;18.60;99.90;;;;;;5071917;28;20485;-52
2023/06/07 09:10:17;;;;;;;5.17;4.67;;;18.60;99.90;;;;;;5070353;28;20529;-48
2023/06/07 09:12:45;;;;;;;5.20;3.50;;;18.70;99.90;;;;;;5072184;28;20451;-48
2023/06/07 09:15:18;;;;;;;5.50;4.30;;;18.80;99.90;;;;;;5071713;28;20482;-48
2023/06/07 09:17:53;;;;;;;6.60;4.90;;;19.00;99.90;;;;;;5071756;28;20972;-51
2023/06/07 09:20:21;;;;;;;5.10;3.87;;;19.10;99.90;;;;;;5071736;28;20472;-48
2023/06/07 09:22:59;;;;;;;5.10;4.50;;;19.00;99.90;;;;;;5072072;28;20550;-48
2023/06/07 09:25:26;;;;;;;4.73;4.00;;;19.00;99.90;;;;;;5071370;28;21003;-48
2023/06/07 09:27:53;;;;;;;6.70;4.83;;;19.00;99.90;;;;;;5071646;28;20530;-48
2023/06/07 09:30:20;;;;;;;5.03;4.33;;;19.10;99.90;;;;;;5070516;28;20482;-49
2023/06/07 09:32:48;;;;;;;5.77;4.53;;;19.10;99.90;;;;;;5070593;28;20440;-53
2023/06/07 09:35:17;;;;;;;6.03;3.20;;;19.10;99.90;;;;;;5069473;28;20453;-49
2023/06/07 09:37:45;;;;;;;4.50;3.50;;;19.20;99.90;;;;;;5069724;28;20813;-48
2023/06/07 09:40:15;;;;;;;5.40;4.00;;;19.20;99.90;;;;;;5070606;28;20531;-48
2023/06/07 09:42:43;;;;;;;4.57;4.17;;;19.30;99.90;;;;;;5069675;28;20444;-53
2023/06/07 09:45:13;;;;;;;4.70;3.70;;;19.50;99.90;;;;;;5070737;28;20480;-53
2023/06/07 09:47:42;;;;;;;5.10;3.30;;;19.60;99.90;;;;;;5070893;28;20563;-48
2023/06/07 09:50:10;;;;;;;5.33;4.10;;;19.70;99.90;;;;;;5071211;28;20954;-48
2023/06/07 09:52:38;;;;;;;4.60;3.53;;;19.80;99.90;;;;;;5071649;28;20536;-48
2023/06/07 09:55:07;;;;;;;5.33;3.60;;;19.80;99.90;;;;;;5068831;28;20530;-48
2023/06/07 09:57:36;;;;;;;4.77;4.27;;;19.90;99.90;;;;;;5071014;28;20888;-48
2023/06/07 10:00:10;;;;;;;4.73;3.40;;;19.90;99.90;;;;;;5070669;28;20506;-50
2023/06/07 10:02:38;;;;;;;4.90;4.40;;;20.00;99.90;;;;;;5071125;28;20456;-48
2023/06/07 10:05:05;;;;;;;4.03;3.30;;;20.00;99.90;;;;;;5070823;28;20819;-53
2023/06/07 10:07:36;;;;;;;5.23;4.27;;;20.10;99.90;;;;;;5070380;28;20567;-48
2023/06/07 10:10:05;;;;;;;4.40;3.97;;;20.20;99.90;;;;;;5070914;28;20536;-48
2023/06/07 10:12:35;;;;;;;8.70;4.50;;;20.30;99.90;;;;;;5071030;28;20516;-49
2023/06/07 10:15:04;;;;;;;4.20;3.80;;;20.40;99.90;;;;;;5070845;28;20448;-48
2023/06/07 10:17:40;;;;;;;5.00;4.47;;;20.50;99.90;;;;;;5070761;28;20466;-48
2023/06/07 10:20:12;;;;;;;5.27;4.50;;;20.50;99.90;;;;;;5070917;28;20472;-53
2023/06/07 10:22:44;;;;;;;8.73;4.00;;;20.60;99.90;;;;;;5069688;28;20441;-48
2023/06/07 10:25:16;;;;;;;5.37;4.27;;;20.70;99.90;;;;;;5070493;28;20460;-48
2023/06/07 10:27:52;;;;;;;4.83;3.80;;;20.70;99.90;;;;;;5070306;28;20931;-49
2023/06/07 10:30:22;;;;;;;6.47;4.67;;;20.70;99.90;;;;;;5070941;28;20451;-52
2023/06/07 10:32:51;;;;;;;4.67;4.13;;;20.80;99.90;;;;;;5069932;28;20540;-48
2023/06/07 10:35:20;;;;;;;5.80;4.10;;;20.80;99.90;;;;;;5070258;28;20511;-54
2023/06/07 10:37:50;;;;;;;5.27;4.50;;;20.80;99.90;;;;;;5066470;28;20487;-50
2023/06/07 10:40:19;;;;;;;4.30;3.70;;;20.80;99.90;;;;;;5068920;28;20443;-48
2023/06/07 10:42:46;;;;;;;4.50;3.73;;;21.00;99.90;;;;;;5065713;28;20445;-48
2023/06/07 10:45:17;;;;;;;7.33;4.83;;;21.10;99.90;;;;;;5069888;28;20536;-49
2023/06/07 10:47:44;;;;;;;5.30;4.80;;;21.20;99.90;;;;;;5069999;28;20852;-48
2023/06/07 10:50:47;;;;;;;5.13;4.33;;;21.20;99.90;;;;;;5069604;28;20494;-51
2023/06/07 10:53:14;;;;;;;4.60;3.87;;;21.30;99.90;;;;;;5070194;28;20446;-49
2023/06/07 10:55:44;;;;;;;5.03;4.03;;;21.30;99.90;;;;;;5068777;28;20472;-49
2023/06/07 10:58:26;;;;;;;5.27;4.40;;;21.30;99.90;;;;;;5069481;28;20449;-48
2023/06/07 11:00:54;;;;;;;5.20;4.60;;;21.50;99.90;;;;;;5070591;28;20512;-51
2023/06/07 11:03:40;;;;;;;4.00;3.60;;;21.50;99.90;;;;;;5070434;28;20524;-52
2023/06/07 11:06:09;;;;;;;4.03;3.40;;;21.60;99.90;;;;;;5070492;28;20992;-48
2023/06/07 11:08:40;;;;;;;4.40;3.90;;;21.80;99.90;;;;;;5070048;28;20463;-49
2023/06/07 11:11:49;;;;;;;5.30;4.03;;;21.90;99.90;;;;;;5069848;28;20447;-48
2023/06/07 11:14:18;;;;;;;5.67;4.10;;;22.00;99.90;;;;;;5073604;28;20437;-49
2023/06/07 11:16:45;;;;;;;5.53;3.40;;;22.10;99.90;;;;;;5073671;28;20460;-48
2023/06/07 11:19:17;;;;;;;5.73;3.67;;;22.10;99.90;;;;;;5074029;28;20538;-53
2023/06/07 11:22:07;;;;;;;5.37;4.17;;;22.10;99.90;;;;;;5074167;28;20931;-48
2023/06/07 11:24:36;;;;;;;5.67;4.20;;;22.20;99.90;;;;;;5073676;28;20436;-51
2023/06/07 11:27:04;;;;;;;5.53;4.47;;;22.30;99.90;;;;;;5073592;28;20480;-48
2023/06/07 11:29:32;;;;;;;6.07;4.00;;;22.30;99.90;;;;;;5073967;28;20443;-52
2023/06/07 11:32:02;;;;;;;5.60;3.70;;;22.40;99.90;;;;;;5074254;28;20535;-49
2023/06/07 11:34:31;;;;;;;5.53;4.00;;;22.40;99.90;;;;;;5073369;28;20931;-51
2023/06/07 11:37:11;;;;;;;5.53;4.03;;;22.50;99.90;;;;;;5073274;28;20494;-48
2023/06/07 11:39:39;;;;;;;4.17;3.30;;;22.50;99.90;;;;;;5074062;28;20447;-48
2023/06/07 11:42:07;;;;;;;8.53;3.60;;;22.50;99.90;;;;;;5072266;28;20532;-50
2023/06/07 11:44:35;;;;;;;5.50;4.53;;;22.60;99.90;;;;;;5073388;28;20448;-49
2023/06/07 11:47:07;;;;;;;5.00;4.20;;;22.60;99.90;;;;;;5073070;28;20473;-48
2023/06/07 11:49:37;;;;;;;5.40;4.00;;;22.60;99.90;;;;;;5073933;28;20487;-52
2023/06/07 11:52:05;;;;;;;6.53;4.10;;;22.60;99.90;;;;;;5073787;28;20448;-49
2023/06/07 11:54:33;;;;;;;5.10;3.97;;;22.60;99.90;;;;;;5071384;28;20441;-48
2023/06/07 11:57:01;;;;;;;5.00;3.97;;;22.70;99.90;;;;;;5073365;28;20475;-48
2023/06/07 11:59:29;;;;;;;8.37;4.87;;;22.70;99.90;;;;;;5073578;28;20490;-50
2023/06/07 12:01:58;;;;;;;5.13;4.50;;;22.70;99.90;;;;;;5073154;28;20485;-50
2023/06/07 12:04:25;;;;;;;5.20;3.87;;;22.80;99.90;;;;;;5072913;28;20445;-49
2023/06/07 12:06:52;;;;;;;6.37;3.90;;;22.80;99.90;;;;;;5073163;28;20562;-53
2023/06/07 12:09:19;;;;;;;4.70;4.10;;;22.90;99.90;;;;;;5073336;28;20856;-49
2023/06/07 12:11:47;;;;;;;7.30;4.20;;;23.00;99.30;;;;;;5071433;28;20487;-48
2023/06/07 12:14:30;;;;;;;5.53;3.90;;;23.20;97.40;;;;;;5072991;28;20451;-49
2023/06/07 12:17:00;;;;;;;5.50;4.10;;;23.10;99.90;;;;;;5073006;28;20448;-50
2023/06/07 12:19:27;;;;;;;6.53;3.70;;;23.10;95.80;;;;;;5072972;28;20816;-49
2023/06/07 12:22:02;;;;;;;5.27;3.90;;;23.10;99.90;;;;;;5072843;28;20471;-48
2023/06/07 12:24:29;;;;;;;4.87;3.40;;;23.20;99.90;;;;;;5072563;28;20910;-50
2023/06/07 12:26:58;;;;;;;4.90;3.80;;;23.30;99.90;;;;;;5072359;28;20477;-48
2023/06/07 12:29:29;;;;;;;5.60;4.00;;;23.30;99.20;;;;;;5073362;28;20774;-49
2023/06/07 12:31:57;;;;;;;4.97;3.93;;;23.30;99.90;;;;;;5072792;28;20467;-48
2023/06/07 12:34:30;;;;;;;5.33;4.10;;;23.30;97.80;;;;;;5072377;28;20927;-49
2023/06/07 12:36:57;;;;;;;5.83;3.73;;;23.40;97.10;;;;;;5072475;28;20532;-48
2023/06/07 12:39:28;;;;;;;4.83;3.80;;;23.40;99.80;;;;;;5072590;28;20445;-51
2023/06/07 12:41:55;;;;;;;5.93;4.07;;;23.40;98.70;;;;;;5070942;28;20464;-48
2023/06/07 12:44:23;;;;;;;5.57;3.90;;;23.40;99.90;;;;;;5072138;28;20528;-50
2023/06/07 12:46:50;;;;;;;5.70;4.17;;;23.30;96.10;;;;;;5071928;28;20822;-53
2023/06/07 12:49:17;;;;;;;6.37;4.53;;;23.40;96.70;;;;;;5072933;28;20461;-48
2023/06/07 12:51:45;;;;;;;5.40;4.50;;;23.50;96.10;;;;;;5072195;28;20472;-50
2023/06/07 12:54:13;;;;;;;5.37;4.20;;;23.50;98.90;;;;;;5070420;28;20445;-47